sensor_id;sensor_type;location;lat;lon;timestamp;pressure;altitude;pressure_sealevel;temperature;humidity
45285;BME280;31026;43.780;25.948;2023-06-22T00:02:33;101100.16;;;21.82;68.63
45285;BME280;31026;43.780;25.948;2023-06-22T00:05:04;101095.56;;;22.02;68.06
45285;BME280;31026;43.780;25.948;2023-06-22T00:07:33;101103.63;;;22.02;67.98
45285;BME280;31026;43.780;25.948;2023-06-22T00:10:01;101101.22;;;22.09;67.58
45285;BME280;31026;43.780;25.948;2023-06-22T00:12:29;101093.63;;;22.22;67.12
45285;BME280;31026;43.780;25.948;2023-06-22T00:14:58;101087.59;;;22.10;67.32
45285;BME280;31026;43.780;25.948;2023-06-22T00:17:26;101083.66;;;22.04;67.83
45285;BME280;31026;43.780;25.948;2023-06-22T00:19:54;101086.69;;;22.29;66.84
45285;BME280;31026;43.780;25.948;2023-06-22T00:22:26;101092.59;;;22.05;67.50
45285;BME280;31026;43.780;25.948;2023-06-22T00:24:56;101069.50;;;22.02;67.92
45285;BME280;31026;43.780;25.948;2023-06-22T00:27:24;101077.72;;;22.01;67.52
45285;BME280;31026;43.780;25.948;2023-06-22T00:29:52;101067.75;;;22.11;67.27
45285;BME280;31026;43.780;25.948;2023-06-22T00:32:21;101057.41;;;22.16;66.99
45285;BME280;31026;43.780;25.948;2023-06-22T00:34:49;101065.03;;;22.21;66.98
45285;BME280;31026;43.780;25.948;2023-06-22T00:37:18;101079.91;;;22.15;67.19
45285;BME280;31026;43.780;25.948;2023-06-22T00:39:50;101076.03;;;21.90;68.03
45285;BME280;31026;43.780;25.948;2023-06-22T00:42:18;101082.03;;;21.84;68.01
45285;BME280;31026;43.780;25.948;2023-06-22T00:44:47;101089.84;;;21.77;68.29
45285;BME280;31026;43.780;25.948;2023-06-22T00:47:15;101084.75;;;21.74;68.23
45285;BME280;31026;43.780;25.948;2023-06-22T00:49:45;101070.84;;;21.79;68.35
45285;BME280;31026;43.780;25.948;2023-06-22T00:52:16;101073.81;;;21.85;67.45
45285;BME280;31026;43.780;25.948;2023-06-22T00:54:45;101084.47;;;21.77;67.93
45285;BME280;31026;43.780;25.948;2023-06-22T00:57:18;101080.84;;;21.96;67.17
45285;BME280;31026;43.780;25.948;2023-06-22T00:59:47;101077.94;;;22.17;66.37
45285;BME280;31026;43.780;25.948;2023-06-22T01:02:16;101058.09;;;22.18;66.55
45285;BME280;31026;43.780;25.948;2023-06-22T01:04:44;101068.56;;;22.21;66.21
45285;BME280;31026;43.780;25.948;2023-06-22T01:07:14;101086.84;;;22.28;65.97
45285;BME280;31026;43.780;25.948;2023-06-22T01:09:50;101059.75;;;22.29;65.88
45285;BME280;31026;43.780;25.948;2023-06-22T01:12:24;101065.59;;;22.24;65.87
45285;BME280;31026;43.780;25.948;2023-06-22T01:14:56;101064.91;;;22.13;66.70
45285;BME280;31026;43.780;25.948;2023-06-22T01:17:25;101063.75;;;22.15;66.41
45285;BME280;31026;43.780;25.948;2023-06-22T01:19:55;101066.47;;;22.15;66.37
45285;BME280;31026;43.780;25.948;2023-06-22T01:22:24;101065.84;;;21.94;66.96
45285;BME280;31026;43.780;25.948;2023-06-22T01:24:57;101064.31;;;21.81;67.48
45285;BME280;31026;43.780;25.948;2023-06-22T01:27:31;101073.78;;;21.95;67.10
45285;BME280;31026;43.780;25.948;2023-06-22T01:30:04;101070.59;;;22.10;66.44
45285;BME280;31026;43.780;25.948;2023-06-22T01:32:36;101073.88;;;22.03;66.80
45285;BME280;31026;43.780;25.948;2023-06-22T01:35:06;101074.66;;;21.86;66.79
45285;BME280;31026;43.780;25.948;2023-06-22T01:37:35;101061.81;;;21.70;67.25
45285;BME280;31026;43.780;25.948;2023-06-22T01:40:05;101083.03;;;21.83;66.95
45285;BME280;31026;43.780;25.948;2023-06-22T01:42:35;101088.53;;;21.91;66.37
45285;BME280;31026;43.780;25.948;2023-06-22T01:45:06;101107.50;;;21.90;66.35
45285;BME280;31026;43.780;25.948;2023-06-22T01:47:35;101103.84;;;21.91;66.36
45285;BME280;31026;43.780;25.948;2023-06-22T01:50:03;101099.50;;;22.08;65.96
45285;BME280;31026;43.780;25.948;2023-06-22T01:52:32;101113.94;;;21.79;66.86
45285;BME280;31026;43.780;25.948;2023-06-22T01:55:01;101114.72;;;21.99;66.50
45285;BME280;31026;43.780;25.948;2023-06-22T01:57:30;101095.84;;;22.09;66.02
45285;BME280;31026;43.780;25.948;2023-06-22T01:59:59;101098.09;;;22.13;65.91
45285;BME280;31026;43.780;25.948;2023-06-22T02:02:31;101114.53;;;22.10;65.88
45285;BME280;31026;43.780;25.948;2023-06-22T02:05:02;101115.91;;;22.14;65.62
45285;BME280;31026;43.780;25.948;2023-06-22T02:07:31;101093.84;;;22.11;65.42
45285;BME280;31026;43.780;25.948;2023-06-22T02:10:02;101106.44;;;22.10;65.38
45285;BME280;31026;43.780;25.948;2023-06-22T02:12:30;101121.63;;;22.11;65.23
45285;BME280;31026;43.780;25.948;2023-06-22T02:14:59;101116.13;;;22.03;65.29
45285;BME280;31026;43.780;25.948;2023-06-22T02:17:30;101118.75;;;22.22;65.13
45285;BME280;31026;43.780;25.948;2023-06-22T02:20:01;101126.53;;;21.78;66.30
45285;BME280;31026;43.780;25.948;2023-06-22T02:22:33;101131.38;;;21.65;66.76
45285;BME280;31026;43.780;25.948;2023-06-22T02:25:02;101131.97;;;21.59;67.02
45285;BME280;31026;43.780;25.948;2023-06-22T02:27:30;101142.72;;;21.59;67.23
45285;BME280;31026;43.780;25.948;2023-06-22T02:29:58;101139.34;;;21.57;67.01
45285;BME280;31026;43.780;25.948;2023-06-22T02:32:26;101129.06;;;21.90;65.84
45285;BME280;31026;43.780;25.948;2023-06-22T02:34:57;101141.91;;;22.05;65.31
45285;BME280;31026;43.780;25.948;2023-06-22T02:37:29;101125.03;;;22.03;65.11
45285;BME280;31026;43.780;25.948;2023-06-22T02:39:57;101158.75;;;22.08;64.99
45285;BME280;31026;43.780;25.948;2023-06-22T02:42:25;101146.84;;;22.10;64.77
45285;BME280;31026;43.780;25.948;2023-06-22T02:44:54;101148.34;;;21.85;65.50
45285;BME280;31026;43.780;25.948;2023-06-22T02:47:22;101154.34;;;21.59;66.30
45285;BME280;31026;43.780;25.948;2023-06-22T02:49:50;101154.59;;;21.66;66.04
45285;BME280;31026;43.780;25.948;2023-06-22T02:52:21;101154.69;;;21.94;65.21
45285;BME280;31026;43.780;25.948;2023-06-22T02:54:50;101151.44;;;21.80;65.33
45285;BME280;31026;43.780;25.948;2023-06-22T02:57:18;101156.81;;;22.00;65.02
45285;BME280;31026;43.780;25.948;2023-06-22T02:59:46;101157.81;;;21.99;64.52
45285;BME280;31026;43.780;25.948;2023-06-22T03:02:15;101149.97;;;22.05;64.48
45285;BME280;31026;43.780;25.948;2023-06-22T03:04:46;101164.16;;;22.08;64.25
45285;BME280;31026;43.780;25.948;2023-06-22T03:07:14;101162.31;;;21.98;64.69
45285;BME280;31026;43.780;25.948;2023-06-22T03:09:45;101171.56;;;21.96;64.55
45285;BME280;31026;43.780;25.948;2023-06-22T03:12:13;101159.34;;;22.01;64.25
45285;BME280;31026;43.780;25.948;2023-06-22T03:14:42;101168.47;;;21.81;65.49
45285;BME280;31026;43.780;25.948;2023-06-22T03:17:10;101164.53;;;21.56;65.86
45285;BME280;31026;43.780;25.948;2023-06-22T03:19:38;101169.31;;;21.72;65.51
45285;BME280;31026;43.780;25.948;2023-06-22T03:22:07;101179.84;;;21.65;65.66
45285;BME280;31026;43.780;25.948;2023-06-22T03:24:35;101163.94;;;21.72;65.13
45285;BME280;31026;43.780;25.948;2023-06-22T03:27:07;101162.97;;;21.63;65.17
45285;BME280;31026;43.780;25.948;2023-06-22T03:29:35;101164.47;;;21.95;64.83
45285;BME280;31026;43.780;25.948;2023-06-22T03:32:04;101168.47;;;21.81;64.96
45285;BME280;31026;43.780;25.948;2023-06-22T03:34:32;101167.56;;;22.00;64.40
45285;BME280;31026;43.780;25.948;2023-06-22T03:37:01;101171.88;;;21.73;65.42
45285;BME280;31026;43.780;25.948;2023-06-22T03:39:29;101163.94;;;21.81;65.48
45285;BME280;31026;43.780;25.948;2023-06-22T03:41:57;101154.03;;;21.72;65.56
45285;BME280;31026;43.780;25.948;2023-06-22T03:44:28;101135.75;;;21.56;66.24
45285;BME280;31026;43.780;25.948;2023-06-22T03:46:57;101166.78;;;21.60;66.32
45285;BME280;31026;43.780;25.948;2023-06-22T03:49:25;101166.78;;;21.60;66.02
45285;BME280;31026;43.780;25.948;2023-06-22T03:51:53;101168.63;;;21.79;65.71
45285;BME280;31026;43.780;25.948;2023-06-22T03:54:21;101158.41;;;21.93;65.36
45285;BME280;31026;43.780;25.948;2023-06-22T03:56:50;101162.50;;;21.97;65.01
45285;BME280;31026;43.780;25.948;2023-06-22T03:59:18;101160.19;;;22.02;64.75
45285;BME280;31026;43.780;25.948;2023-06-22T04:01:49;101164.88;;;22.00;64.87
45285;BME280;31026;43.780;25.948;2023-06-22T04:04:17;101158.19;;;22.14;64.89
45285;BME280;31026;43.780;25.948;2023-06-22T04:06:46;101159.34;;;22.01;65.31
45285;BME280;31026;43.780;25.948;2023-06-22T04:09:14;101163.91;;;22.01;65.38
45285;BME280;31026;43.780;25.948;2023-06-22T04:11:43;101160.59;;;22.17;65.01
45285;BME280;31026;43.780;25.948;2023-06-22T04:14:11;101158.50;;;22.01;65.67
45285;BME280;31026;43.780;25.948;2023-06-22T04:16:39;101161.66;;;21.87;66.39
45285;BME280;31026;43.780;25.948;2023-06-22T04:19:10;101171.84;;;21.93;66.29
45285;BME280;31026;43.780;25.948;2023-06-22T04:21:41;101177.16;;;22.22;65.56
45285;BME280;31026;43.780;25.948;2023-06-22T04:24:10;101172.78;;;22.11;65.85
45285;BME280;31026;43.780;25.948;2023-06-22T04:26:38;101164.47;;;21.95;66.44
45285;BME280;31026;43.780;25.948;2023-06-22T04:29:06;101168.72;;;21.97;66.74
45285;BME280;31026;43.780;25.948;2023-06-22T04:31:35;101167.56;;;22.00;66.58
45285;BME280;31026;43.780;25.948;2023-06-22T04:34:04;101164.47;;;22.04;66.38
45285;BME280;31026;43.780;25.948;2023-06-22T04:36:37;101177.47;;;22.09;66.39
45285;BME280;31026;43.780;25.948;2023-06-22T04:39:06;101188.50;;;22.26;66.28
45285;BME280;31026;43.780;25.948;2023-06-22T04:41:35;101182.63;;;22.40;65.46
45285;BME280;31026;43.780;25.948;2023-06-22T04:44:07;101179.66;;;22.43;65.59
45285;BME280;31026;43.780;25.948;2023-06-22T04:46:36;101186.84;;;22.24;66.46
45285;BME280;31026;43.780;25.948;2023-06-22T04:49:05;101182.25;;;22.35;65.96
45285;BME280;31026;43.780;25.948;2023-06-22T04:51:41;101204.97;;;22.32;65.80
45285;BME280;31026;43.780;25.948;2023-06-22T04:54:10;101196.44;;;22.37;65.84
45285;BME280;31026;43.780;25.948;2023-06-22T04:59:06;101189.75;;;22.41;66.05
45285;BME280;31026;43.780;25.948;2023-06-22T05:01:38;101190.56;;;22.51;65.87
45285;BME280;31026;43.780;25.948;2023-06-22T05:04:06;101187.72;;;22.53;65.83
45285;BME280;31026;43.780;25.948;2023-06-22T05:06:35;101194.97;;;22.52;66.08
45285;BME280;31026;43.780;25.948;2023-06-22T05:09:05;101186.56;;;22.55;65.80
45285;BME280;31026;43.780;25.948;2023-06-22T05:11:34;101179.66;;;22.43;66.23
45285;BME280;31026;43.780;25.948;2023-06-22T05:14:02;101194.97;;;22.52;66.50
45285;BME280;31026;43.780;25.948;2023-06-22T05:16:30;101175.88;;;22.63;65.98
45285;BME280;31026;43.780;25.948;2023-06-22T05:18:59;101188.75;;;22.70;65.90
45285;BME280;31026;43.780;25.948;2023-06-22T05:21:28;101181.53;;;22.70;65.92
45285;BME280;31026;43.780;25.948;2023-06-22T05:23:57;101195.53;;;22.74;65.66
45285;BME280;31026;43.780;25.948;2023-06-22T05:26:30;101188.31;;;22.74;65.51
45285;BME280;31026;43.780;25.948;2023-06-22T05:28:59;101190.59;;;22.69;65.90
45285;BME280;31026;43.780;25.948;2023-06-22T05:31:28;101196.25;;;22.76;65.53
45285;BME280;31026;43.780;25.948;2023-06-22T05:33:56;101190.16;;;22.74;66.01
45285;BME280;31026;43.780;25.948;2023-06-22T05:36:25;101182.53;;;22.69;65.99
45285;BME280;31026;43.780;25.948;2023-06-22T05:38:53;101185.34;;;22.68;66.03
45285;BME280;31026;43.780;25.948;2023-06-22T05:41:21;101187.91;;;22.69;66.05
45285;BME280;31026;43.780;25.948;2023-06-22T05:43:52;101190.94;;;22.66;66.09
45285;BME280;31026;43.780;25.948;2023-06-22T05:46:20;101187.50;;;22.64;66.13
45285;BME280;31026;43.780;25.948;2023-06-22T05:48:49;101190.06;;;22.66;66.18
45285;BME280;31026;43.780;25.948;2023-06-22T05:51:17;101180.97;;;22.67;66.04
45285;BME280;31026;43.780;25.948;2023-06-22T05:53:45;101179.81;;;22.69;66.02
45285;BME280;31026;43.780;25.948;2023-06-22T05:56:15;101167.03;;;22.71;65.72
45285;BME280;31026;43.780;25.948;2023-06-22T05:58:43;101175.53;;;22.76;65.73
45285;BME280;31026;43.780;25.948;2023-06-22T06:01:14;101180.47;;;22.81;65.64
45285;BME280;31026;43.780;25.948;2023-06-22T06:03:43;101167.53;;;22.84;65.45
45285;BME280;31026;43.780;25.948;2023-06-22T06:06:11;101165.91;;;22.92;65.04
45285;BME280;31026;43.780;25.948;2023-06-22T06:08:40;101165.34;;;22.98;64.97
45285;BME280;31026;43.780;25.948;2023-06-22T06:11:08;101182.34;;;23.08;64.70
45285;BME280;31026;43.780;25.948;2023-06-22T06:13:37;101181.25;;;23.19;64.36
45285;BME280;31026;43.780;25.948;2023-06-22T06:16:05;101169.56;;;23.28;64.03
45285;BME280;31026;43.780;25.948;2023-06-22T06:18:36;101178.09;;;23.23;64.10
45285;BME280;31026;43.780;25.948;2023-06-22T06:21:04;101185.03;;;23.26;64.16
45285;BME280;31026;43.780;25.948;2023-06-22T06:23:32;101170.94;;;23.32;63.77
45285;BME280;31026;43.780;25.948;2023-06-22T06:26:01;101173.84;;;23.21;64.43
45285;BME280;31026;43.780;25.948;2023-06-22T06:28:32;101190.25;;;23.28;64.19
45285;BME280;31026;43.780;25.948;2023-06-22T06:31:00;101172.31;;;23.36;64.13
45285;BME280;31026;43.780;25.948;2023-06-22T06:33:32;101182.97;;;23.56;63.61
45285;BME280;31026;43.780;25.948;2023-06-22T06:36:03;101177.84;;;23.53;63.23
45285;BME280;31026;43.780;25.948;2023-06-22T06:38:33;101176.63;;;23.29;65.23
45285;BME280;31026;43.780;25.948;2023-06-22T06:41:02;101172.31;;;23.36;65.08
45285;BME280;31026;43.780;25.948;2023-06-22T06:43:30;101168.25;;;23.32;65.10
45285;BME280;31026;43.780;25.948;2023-06-22T06:45:58;101181.09;;;23.38;64.73
45285;BME280;31026;43.780;25.948;2023-06-22T06:48:28;101183.34;;;23.43;64.86
45285;BME280;31026;43.780;25.948;2023-06-22T06:50:56;101171.06;;;23.49;64.83
45285;BME280;31026;43.780;25.948;2023-06-22T06:53:27;101181.56;;;23.52;65.06
45285;BME280;31026;43.780;25.948;2023-06-22T06:55:56;101162.28;;;23.47;65.20
45285;BME280;31026;43.780;25.948;2023-06-22T06:58:24;101177.66;;;23.46;65.28
45285;BME280;31026;43.780;25.948;2023-06-22T07:00:53;101176.06;;;23.43;65.41
45285;BME280;31026;43.780;25.948;2023-06-22T07:03:22;101185.88;;;23.45;65.58
45285;BME280;31026;43.780;25.948;2023-06-22T07:05:51;101181.03;;;23.48;65.57
45285;BME280;31026;43.780;25.948;2023-06-22T07:08:22;101172.78;;;23.50;65.43
45285;BME280;31026;43.780;25.948;2023-06-22T07:10:53;101181.41;;;23.35;66.03
45285;BME280;31026;43.780;25.948;2023-06-22T07:13:21;101169.75;;;23.53;65.23
45285;BME280;31026;43.780;25.948;2023-06-22T07:15:49;101180.72;;;23.51;65.27
45285;BME280;31026;43.780;25.948;2023-06-22T07:18:18;101180.88;;;23.50;65.55
45285;BME280;31026;43.780;25.948;2023-06-22T07:20:46;101184.97;;;23.54;65.76
45285;BME280;31026;43.780;25.948;2023-06-22T07:23:15;101177.03;;;23.52;65.37
45285;BME280;31026;43.780;25.948;2023-06-22T07:25:44;101175.47;;;23.50;65.48
45285;BME280;31026;43.780;25.948;2023-06-22T07:28:15;101182.56;;;23.51;65.38
45285;BME280;31026;43.780;25.948;2023-06-22T07:30:44;101177.84;;;23.53;65.32
45285;BME280;31026;43.780;25.948;2023-06-22T07:33:13;101182.41;;;23.52;65.60
45285;BME280;31026;43.780;25.948;2023-06-22T07:35:42;101177.66;;;23.46;65.56
45285;BME280;31026;43.780;25.948;2023-06-22T07:38:12;101180.50;;;23.45;65.81
45285;BME280;31026;43.780;25.948;2023-06-22T07:40:40;101178.25;;;23.40;65.95
45285;BME280;31026;43.780;25.948;2023-06-22T07:43:09;101164.91;;;23.38;65.63
45285;BME280;31026;43.780;25.948;2023-06-22T07:45:40;101164.91;;;23.38;65.71
45285;BME280;31026;43.780;25.948;2023-06-22T07:48:17;101173.72;;;23.40;65.66
45285;BME280;31026;43.780;25.948;2023-06-22T07:50:46;101175.72;;;23.38;65.99
45285;BME280;31026;43.780;25.948;2023-06-22T07:53:14;101181.47;;;23.43;65.85
45285;BME280;31026;43.780;25.948;2023-06-22T07:55:42;101155.81;;;23.39;65.69
45285;BME280;31026;43.780;25.948;2023-06-22T07:58:11;101179.09;;;23.40;65.91
45285;BME280;31026;43.780;25.948;2023-06-22T08:00:43;101187.19;;;23.40;65.93
45285;BME280;31026;43.780;25.948;2023-06-22T08:03:12;101190.03;;;23.57;65.22
45285;BME280;31026;43.780;25.948;2023-06-22T08:05:40;101171.94;;;23.75;64.88
45285;BME280;31026;43.780;25.948;2023-06-22T08:08:09;101164.41;;;23.61;65.15
45285;BME280;31026;43.780;25.948;2023-06-22T08:10:37;101181.72;;;23.50;65.51
45285;BME280;31026;43.780;25.948;2023-06-22T08:13:06;101176.94;;;23.44;65.56
45285;BME280;31026;43.780;25.948;2023-06-22T08:15:34;101175.72;;;23.38;65.58
45285;BME280;31026;43.780;25.948;2023-06-22T08:18:05;101178.09;;;23.41;65.99
45285;BME280;31026;43.780;25.948;2023-06-22T08:20:34;101176.78;;;23.46;65.60
45285;BME280;31026;43.780;25.948;2023-06-22T08:23:02;101183.19;;;23.45;65.66
45285;BME280;31026;43.780;25.948;2023-06-22T08:25:31;101173.84;;;23.39;65.93
45285;BME280;31026;43.780;25.948;2023-06-22T08:28:00;101169.47;;;23.38;65.55
45285;BME280;31026;43.780;25.948;2023-06-22T08:30:28;101164.59;;;23.41;65.73
45285;BME280;31026;43.780;25.948;2023-06-22T08:32:57;101177.66;;;23.46;65.60
45285;BME280;31026;43.780;25.948;2023-06-22T08:35:28;101178.47;;;23.47;65.72
45285;BME280;31026;43.780;25.948;2023-06-22T08:37:57;101181.56;;;23.52;65.46
45285;BME280;31026;43.780;25.948;2023-06-22T08:40:27;101181.56;;;23.52;65.61
45285;BME280;31026;43.780;25.948;2023-06-22T08:42:55;101172.16;;;23.56;65.65
45285;BME280;31026;43.780;25.948;2023-06-22T08:45:24;101169.63;;;23.54;65.35
45285;BME280;31026;43.780;25.948;2023-06-22T08:47:52;101176.00;;;23.53;65.21
45285;BME280;31026;43.780;25.948;2023-06-22T08:50:21;101170.44;;;23.55;65.37
45285;BME280;31026;43.780;25.948;2023-06-22T08:52:52;101179.88;;;23.51;65.53
45285;BME280;31026;43.780;25.948;2023-06-22T08:55:20;101176.19;;;23.52;65.67
45285;BME280;31026;43.780;25.948;2023-06-22T08:57:48;101176.41;;;23.58;65.31
45285;BME280;31026;43.780;25.948;2023-06-22T09:00:17;101155.41;;;23.70;65.02
45285;BME280;31026;43.780;25.948;2023-06-22T09:02:46;101163.19;;;23.55;65.21
45285;BME280;31026;43.780;25.948;2023-06-22T09:05:15;101166.84;;;23.46;65.40
45285;BME280;31026;43.780;25.948;2023-06-22T09:07:43;101172.69;;;23.41;65.75
45285;BME280;31026;43.780;25.948;2023-06-22T09:10:14;101169.16;;;23.41;65.86
45285;BME280;31026;43.780;25.948;2023-06-22T09:12:42;101165.59;;;23.40;66.00
45285;BME280;31026;43.780;25.948;2023-06-22T09:15:11;101158.50;;;23.39;65.92
45285;BME280;31026;43.780;25.948;2023-06-22T09:17:40;101154.81;;;23.40;65.98
45285;BME280;31026;43.780;25.948;2023-06-22T09:20:09;101166.97;;;23.62;65.36
45285;BME280;31026;43.780;25.948;2023-06-22T09:22:38;101164.22;;;23.54;65.40
45285;BME280;31026;43.780;25.948;2023-06-22T09:25:06;101158.91;;;23.45;65.67
45285;BME280;31026;43.780;25.948;2023-06-22T09:27:37;101154.13;;;23.38;65.81
45285;BME280;31026;43.780;25.948;2023-06-22T09:30:06;101161.38;;;23.38;66.04
45285;BME280;31026;43.780;25.948;2023-06-22T09:32:35;101160.34;;;23.57;65.64
45285;BME280;31026;43.780;25.948;2023-06-22T09:35:04;101162.97;;;23.49;65.67
45285;BME280;31026;43.780;25.948;2023-06-22T09:37:34;101160.97;;;23.51;66.00
45285;BME280;31026;43.780;25.948;2023-06-22T09:40:03;101168.09;;;23.52;65.78
45285;BME280;31026;43.780;25.948;2023-06-22T09:42:38;101159.19;;;23.41;65.76
45285;BME280;31026;43.780;25.948;2023-06-22T09:45:06;101151.56;;;23.37;66.17
45285;BME280;31026;43.780;25.948;2023-06-22T09:47:35;101157.50;;;23.40;66.13
45285;BME280;31026;43.780;25.948;2023-06-22T09:50:04;101153.78;;;23.41;66.14
45285;BME280;31026;43.780;25.948;2023-06-22T09:52:33;101145.53;;;23.43;65.99
45285;BME280;31026;43.780;25.948;2023-06-22T09:55:01;101153.28;;;23.38;66.10
45285;BME280;31026;43.780;25.948;2023-06-22T09:57:29;101143.00;;;23.41;66.03
45285;BME280;31026;43.780;25.948;2023-06-22T10:00:00;101148.94;;;23.45;66.04
45285;BME280;31026;43.780;25.948;2023-06-22T10:02:31;101140.53;;;23.48;66.00
45285;BME280;31026;43.780;25.948;2023-06-22T10:04:59;101146.56;;;23.24;66.89
45285;BME280;31026;43.780;25.948;2023-06-22T10:07:27;101178.00;;;23.33;66.39
45285;BME280;31026;43.780;25.948;2023-06-22T10:09:55;101151.28;;;23.40;66.30
45285;BME280;31026;43.780;25.948;2023-06-22T10:12:24;101143.88;;;23.42;66.19
45285;BME280;31026;43.780;25.948;2023-06-22T10:14:52;101138.69;;;23.49;66.20
45285;BME280;31026;43.780;25.948;2023-06-22T10:17:23;101136.28;;;23.46;66.13
45285;BME280;31026;43.780;25.948;2023-06-22T10:19:51;101134.91;;;23.41;66.05
45285;BME280;31026;43.780;25.948;2023-06-22T10:22:20;101125.97;;;23.41;66.03
45285;BME280;31026;43.780;25.948;2023-06-22T10:24:48;101134.91;;;23.41;66.28
45285;BME280;31026;43.780;25.948;2023-06-22T10:27:16;101137.94;;;23.38;66.15
45285;BME280;31026;43.780;25.948;2023-06-22T10:29:45;101126.91;;;23.32;66.71
45285;BME280;31026;43.780;25.948;2023-06-22T10:32:13;101134.22;;;23.39;66.32
45285;BME280;31026;43.780;25.948;2023-06-22T10:34:44;101132.19;;;23.41;66.16
45285;BME280;31026;43.780;25.948;2023-06-22T10:37:12;101111.78;;;23.39;65.92
45285;BME280;31026;43.780;25.948;2023-06-22T10:39:40;101125.34;;;23.47;66.15
45285;BME280;31026;43.780;25.948;2023-06-22T10:42:09;101112.63;;;23.39;66.15
45285;BME280;31026;43.780;25.948;2023-06-22T10:44:37;101119.09;;;23.47;66.24
45285;BME280;31026;43.780;25.948;2023-06-22T10:47:06;101099.50;;;23.45;66.15
45285;BME280;31026;43.780;25.948;2023-06-22T10:49:37;101112.88;;;23.46;65.95
45285;BME280;31026;43.780;25.948;2023-06-22T10:52:08;101109.22;;;23.37;66.28
45285;BME280;31026;43.780;25.948;2023-06-22T10:54:37;101106.69;;;23.54;66.18
45285;BME280;31026;43.780;25.948;2023-06-22T10:57:05;101100.94;;;23.57;65.94
45285;BME280;31026;43.780;25.948;2023-06-22T10:59:33;101094.13;;;23.45;65.97
45285;BME280;31026;43.780;25.948;2023-06-22T11:02:02;101106.00;;;23.52;66.11
45285;BME280;31026;43.780;25.948;2023-06-22T11:04:30;101115.09;;;23.51;65.87
45285;BME280;31026;43.780;25.948;2023-06-22T11:06:59;101105.81;;;23.53;66.14
45285;BME280;31026;43.780;25.948;2023-06-22T11:09:30;101120.19;;;23.54;66.07
45285;BME280;31026;43.780;25.948;2023-06-22T11:11:58;101108.84;;;23.50;65.96
45285;BME280;31026;43.780;25.948;2023-06-22T11:14:26;101115.91;;;23.51;65.97
45285;BME280;31026;43.780;25.948;2023-06-22T11:16:55;101105.31;;;23.50;66.28
45285;BME280;31026;43.780;25.948;2023-06-22T11:19:23;101111.91;;;23.55;66.21
45285;BME280;31026;43.780;25.948;2023-06-22T11:21:51;101106.16;;;23.50;66.25
45285;BME280;31026;43.780;25.948;2023-06-22T11:24:20;101111.69;;;23.49;66.19
45285;BME280;31026;43.780;25.948;2023-06-22T11:26:50;101102.59;;;23.50;66.53
45285;BME280;31026;43.780;25.948;2023-06-22T11:29:19;101106.75;;;23.62;66.20
45285;BME280;31026;43.780;25.948;2023-06-22T11:31:47;101102.72;;;23.66;65.82
45285;BME280;31026;43.780;25.948;2023-06-22T11:34:15;101113.06;;;23.53;65.94
45285;BME280;31026;43.780;25.948;2023-06-22T11:36:44;101102.59;;;23.50;66.04
45285;BME280;31026;43.780;25.948;2023-06-22T11:39:13;101089.25;;;23.48;66.28
45285;BME280;31026;43.780;25.948;2023-06-22T11:41:42;101103.19;;;23.43;66.42
45285;BME280;31026;43.780;25.948;2023-06-22T11:44:13;101091.28;;;23.46;66.40
45285;BME280;31026;43.780;25.948;2023-06-22T11:46:41;101102.91;;;23.47;66.56
45285;BME280;31026;43.780;25.948;2023-06-22T11:49:09;101097.81;;;23.43;66.38
45285;BME280;31026;43.780;25.948;2023-06-22T11:51:37;101097.81;;;23.43;66.51
45285;BME280;31026;43.780;25.948;2023-06-22T11:54:06;101101.91;;;23.48;66.23
45285;BME280;31026;43.780;25.948;2023-06-22T11:56:34;101099.50;;;23.45;66.63
45285;BME280;31026;43.780;25.948;2023-06-22T11:59:02;101089.56;;;23.45;66.56
45285;BME280;31026;43.780;25.948;2023-06-22T12:04:29;101102.91;;;23.47;66.50
45285;BME280;31026;43.780;25.948;2023-06-22T12:06:57;101094.81;;;23.47;66.61
45285;BME280;31026;43.780;25.948;2023-06-22T12:09:26;101093.28;;;23.44;66.66
45285;BME280;31026;43.780;25.948;2023-06-22T12:11:54;101086.03;;;23.45;66.82
45285;BME280;31026;43.780;25.948;2023-06-22T12:14:22;101081.31;;;23.47;66.46
45285;BME280;31026;43.780;25.948;2023-06-22T12:16:51;101089.25;;;23.48;66.77
45285;BME280;31026;43.780;25.948;2023-06-22T12:19:19;101077.00;;;23.54;66.66
45285;BME280;31026;43.780;25.948;2023-06-22T12:21:50;101071.50;;;23.63;66.02
45285;BME280;31026;43.780;25.948;2023-06-22T12:24:18;101074.38;;;23.70;65.83
45285;BME280;31026;43.780;25.948;2023-06-22T12:26:46;101081.31;;;23.73;66.14
45285;BME280;31026;43.780;25.948;2023-06-22T12:29:15;101075.38;;;23.69;65.78
45285;BME280;31026;43.780;25.948;2023-06-22T12:31:43;101055.50;;;23.70;65.95
45285;BME280;31026;43.780;25.948;2023-06-22T12:34:11;101060.06;;;23.70;65.88
45285;BME280;31026;43.780;25.948;2023-06-22T12:36:40;101069.34;;;23.75;65.69
45285;BME280;31026;43.780;25.948;2023-06-22T12:39:11;101068.81;;;23.46;66.48
45285;BME280;31026;43.780;25.948;2023-06-22T12:41:39;101048.22;;;23.45;66.53
45285;BME280;31026;43.780;25.948;2023-06-22T12:44:07;101049.72;;;23.39;66.95
45285;BME280;31026;43.780;25.948;2023-06-22T12:46:35;101036.53;;;23.36;67.06
45285;BME280;31026;43.780;25.948;2023-06-22T12:49:04;101029.88;;;23.48;66.53
45285;BME280;31026;43.780;25.948;2023-06-22T12:51:33;101049.34;;;23.60;66.19
45285;BME280;31026;43.780;25.948;2023-06-22T12:54:01;101038.59;;;23.68;66.11
45285;BME280;31026;43.780;25.948;2023-06-22T12:56:32;101044.34;;;23.73;66.11